sensor_id;sensor_type;location;lat;lon;timestamp;P1;durP1;ratioP1;P2;durP2;ratioP2
20749;SDS011;10535;50.664;4.564;2022-11-12T00:02:10;9.40;;;5.57;;
20749;SDS011;10535;50.664;4.564;2022-11-12T00:05:19;10.47;;;5.53;;
20749;SDS011;10535;50.664;4.564;2022-11-12T00:08:00;13.10;;;5.33;;
20749;SDS011;10535;50.664;4.564;2022-11-12T00:11:11;7.53;;;4.70;;
20749;SDS011;10535;50.664;4.564;2022-11-12T00:13:57;9.60;;;5.23;;
20749;SDS011;10535;50.664;4.564;2022-11-12T00:17:02;8.83;;;4.90;;
20749;SDS011;10535;50.664;4.564;2022-11-12T00:19:51;9.10;;;4.80;;
20749;SDS011;10535;50.664;4.564;2022-11-12T00:23:08;7.93;;;5.27;;
20749;SDS011;10535;50.664;4.564;2022-11-12T00:28:45;9.47;;;5.03;;
20749;SDS011;10535;50.664;4.564;2022-11-12T00:34:14;9.37;;;5.40;;
20749;SDS011;10535;50.664;4.564;2022-11-12T00:37:28;8.47;;;5.17;;
20749;SDS011;10535;50.664;4.564;2022-11-12T00:40:18;8.70;;;5.37;;
20749;SDS011;10535;50.664;4.564;2022-11-12T00:43:09;9.10;;;5.00;;
20749;SDS011;10535;50.664;4.564;2022-11-12T00:45:34;7.77;;;4.77;;
20749;SDS011;10535;50.664;4.564;2022-11-12T00:48:00;9.93;;;4.77;;
20749;SDS011;10535;50.664;4.564;2022-11-12T00:51:01;8.73;;;4.87;;
20749;SDS011;10535;50.664;4.564;2022-11-12T00:54:08;7.90;;;5.23;;
20749;SDS011;10535;50.664;4.564;2022-11-12T00:56:36;10.97;;;4.53;;
20749;SDS011;10535;50.664;4.564;2022-11-12T00:59:21;9.00;;;4.73;;
20749;SDS011;10535;50.664;4.564;2022-11-12T01:01:49;7.50;;;4.73;;
20749;SDS011;10535;50.664;4.564;2022-11-12T01:04:36;8.80;;;4.50;;
20749;SDS011;10535;50.664;4.564;2022-11-12T01:07:04;9.80;;;4.77;;
20749;SDS011;10535;50.664;4.564;2022-11-12T01:09:56;11.33;;;5.83;;
20749;SDS011;10535;50.664;4.564;2022-11-12T01:12:31;8.00;;;4.60;;
20749;SDS011;10535;50.664;4.564;2022-11-12T01:15:00;9.87;;;4.37;;
20749;SDS011;10535;50.664;4.564;2022-11-12T01:17:29;7.67;;;4.70;;
20749;SDS011;10535;50.664;4.564;2022-11-12T01:19:57;7.13;;;4.50;;
20749;SDS011;10535;50.664;4.564;2022-11-12T01:22:35;8.37;;;5.27;;
20749;SDS011;10535;50.664;4.564;2022-11-12T01:25:04;7.83;;;5.07;;
20749;SDS011;10535;50.664;4.564;2022-11-12T01:27:36;12.50;;;5.10;;
20749;SDS011;10535;50.664;4.564;2022-11-12T01:30:03;7.87;;;5.27;;
20749;SDS011;10535;50.664;4.564;2022-11-12T01:32:33;8.90;;;5.00;;
20749;SDS011;10535;50.664;4.564;2022-11-12T01:35:01;9.97;;;4.60;;
20749;SDS011;10535;50.664;4.564;2022-11-12T01:37:28;7.37;;;5.10;;
20749;SDS011;10535;50.664;4.564;2022-11-12T01:39:59;8.13;;;4.97;;
20749;SDS011;10535;50.664;4.564;2022-11-12T01:42:51;8.27;;;4.93;;
20749;SDS011;10535;50.664;4.564;2022-11-12T01:45:22;7.80;;;4.83;;
20749;SDS011;10535;50.664;4.564;2022-11-12T01:48:22;9.30;;;3.73;;
20749;SDS011;10535;50.664;4.564;2022-11-12T01:50:57;7.30;;;4.27;;
20749;SDS011;10535;50.664;4.564;2022-11-12T01:53:24;9.30;;;3.93;;
20749;SDS011;10535;50.664;4.564;2022-11-12T01:56:04;6.63;;;4.10;;
20749;SDS011;10535;50.664;4.564;2022-11-12T01:58:37;9.23;;;4.63;;
20749;SDS011;10535;50.664;4.564;2022-11-12T02:01:07;8.33;;;4.67;;
20749;SDS011;10535;50.664;4.564;2022-11-12T02:03:36;8.13;;;4.70;;
20749;SDS011;10535;50.664;4.564;2022-11-12T02:06:10;8.53;;;4.90;;
20749;SDS011;10535;50.664;4.564;2022-11-12T02:08:38;9.97;;;4.97;;
20749;SDS011;10535;50.664;4.564;2022-11-12T02:11:13;6.03;;;4.10;;
20749;SDS011;10535;50.664;4.564;2022-11-12T02:13:45;7.80;;;4.90;;
20749;SDS011;10535;50.664;4.564;2022-11-12T02:16:22;9.13;;;4.17;;
20749;SDS011;10535;50.664;4.564;2022-11-12T02:18:56;7.60;;;4.83;;
20749;SDS011;10535;50.664;4.564;2022-11-12T02:21:26;9.33;;;5.20;;
20749;SDS011;10535;50.664;4.564;2022-11-12T02:24:01;6.90;;;4.37;;
20749;SDS011;10535;50.664;4.564;2022-11-12T02:26:48;7.50;;;4.50;;
20749;SDS011;10535;50.664;4.564;2022-11-12T02:29:18;11.77;;;5.57;;
20749;SDS011;10535;50.664;4.564;2022-11-12T02:31:45;8.13;;;4.53;;
20749;SDS011;10535;50.664;4.564;2022-11-12T02:34:13;7.93;;;4.47;;
20749;SDS011;10535;50.664;4.564;2022-11-12T02:36:44;10.70;;;6.37;;
20749;SDS011;10535;50.664;4.564;2022-11-12T02:39:30;6.83;;;4.67;;
20749;SDS011;10535;50.664;4.564;2022-11-12T02:41:57;9.23;;;5.30;;
20749;SDS011;10535;50.664;4.564;2022-11-12T02:44:33;9.23;;;4.87;;
20749;SDS011;10535;50.664;4.564;2022-11-12T02:47:03;10.27;;;5.17;;
20749;SDS011;10535;50.664;4.564;2022-11-12T02:49:29;11.13;;;5.90;;
20749;SDS011;10535;50.664;4.564;2022-11-12T02:51:55;11.40;;;5.57;;
20749;SDS011;10535;50.664;4.564;2022-11-12T02:54:21;9.43;;;5.67;;
20749;SDS011;10535;50.664;4.564;2022-11-12T02:56:48;8.73;;;5.63;;
20749;SDS011;10535;50.664;4.564;2022-11-12T02:59:17;8.33;;;4.90;;
20749;SDS011;10535;50.664;4.564;2022-11-12T03:01:45;12.17;;;5.73;;
20749;SDS011;10535;50.664;4.564;2022-11-12T03:04:12;10.63;;;4.70;;
20749;SDS011;10535;50.664;4.564;2022-11-12T03:06:38;10.47;;;5.37;;
20749;SDS011;10535;50.664;4.564;2022-11-12T03:09:04;8.37;;;4.70;;
20749;SDS011;10535;50.664;4.564;2022-11-12T03:11:30;7.27;;;5.00;;
20749;SDS011;10535;50.664;4.564;2022-11-12T03:13:55;10.07;;;5.00;;
20749;SDS011;10535;50.664;4.564;2022-11-12T03:16:22;9.77;;;5.83;;
20749;SDS011;10535;50.664;4.564;2022-11-12T03:18:48;9.50;;;5.17;;
20749;SDS011;10535;50.664;4.564;2022-11-12T03:21:14;7.33;;;4.83;;
20749;SDS011;10535;50.664;4.564;2022-11-12T03:23:40;10.73;;;5.00;;
20749;SDS011;10535;50.664;4.564;2022-11-12T03:26:06;9.30;;;4.87;;
20749;SDS011;10535;50.664;4.564;2022-11-12T03:28:31;9.57;;;5.80;;
20749;SDS011;10535;50.664;4.564;2022-11-12T03:30:58;9.17;;;5.23;;
20749;SDS011;10535;50.664;4.564;2022-11-12T03:33:25;9.17;;;5.40;;
20749;SDS011;10535;50.664;4.564;2022-11-12T03:35:50;10.63;;;5.50;;
20749;SDS011;10535;50.664;4.564;2022-11-12T03:38:16;7.13;;;4.50;;
20749;SDS011;10535;50.664;4.564;2022-11-12T03:40:48;9.83;;;5.40;;
20749;SDS011;10535;50.664;4.564;2022-11-12T03:43:20;9.27;;;5.90;;
20749;SDS011;10535;50.664;4.564;2022-11-12T03:45:47;10.10;;;5.40;;
20749;SDS011;10535;50.664;4.564;2022-11-12T03:48:12;12.37;;;5.40;;
20749;SDS011;10535;50.664;4.564;2022-11-12T03:50:46;7.63;;;5.03;;
20749;SDS011;10535;50.664;4.564;2022-11-12T03:53:14;9.53;;;5.83;;
20749;SDS011;10535;50.664;4.564;2022-11-12T03:55:40;11.27;;;4.87;;
20749;SDS011;10535;50.664;4.564;2022-11-12T03:58:13;11.30;;;5.57;;
20749;SDS011;10535;50.664;4.564;2022-11-12T04:00:43;7.73;;;4.70;;
20749;SDS011;10535;50.664;4.564;2022-11-12T04:03:11;9.07;;;4.57;;
20749;SDS011;10535;50.664;4.564;2022-11-12T04:05:37;8.87;;;5.33;;
20749;SDS011;10535;50.664;4.564;2022-11-12T04:08:25;8.60;;;5.00;;
20749;SDS011;10535;50.664;4.564;2022-11-12T04:11:01;7.50;;;4.83;;
20749;SDS011;10535;50.664;4.564;2022-11-12T04:13:54;9.13;;;4.97;;
20749;SDS011;10535;50.664;4.564;2022-11-12T04:16:51;9.37;;;5.27;;
20749;SDS011;10535;50.664;4.564;2022-11-12T04:19:36;9.03;;;5.37;;
20749;SDS011;10535;50.664;4.564;2022-11-12T04:22:52;7.47;;;4.70;;
20749;SDS011;10535;50.664;4.564;2022-11-12T04:25:19;7.63;;;4.87;;
20749;SDS011;10535;50.664;4.564;2022-11-12T04:28:15;8.87;;;5.03;;
20749;SDS011;10535;50.664;4.564;2022-11-12T04:30:41;7.63;;;5.10;;
20749;SDS011;10535;50.664;4.564;2022-11-12T04:33:10;10.03;;;4.80;;
20749;SDS011;10535;50.664;4.564;2022-11-12T04:35:46;10.53;;;5.20;;
20749;SDS011;10535;50.664;4.564;2022-11-12T04:38:36;7.33;;;4.10;;
20749;SDS011;10535;50.664;4.564;2022-11-12T04:41:08;9.70;;;5.80;;
20749;SDS011;10535;50.664;4.564;2022-11-12T04:44:06;11.73;;;5.10;;
20749;SDS011;10535;50.664;4.564;2022-11-12T04:46:52;9.87;;;4.27;;
20749;SDS011;10535;50.664;4.564;2022-11-12T04:49:18;7.27;;;4.03;;
20749;SDS011;10535;50.664;4.564;2022-11-12T04:51:45;12.97;;;5.47;;
20749;SDS011;10535;50.664;4.564;2022-11-12T04:54:30;9.20;;;5.07;;
20749;SDS011;10535;50.664;4.564;2022-11-12T04:56:59;9.07;;;5.17;;
20749;SDS011;10535;50.664;4.564;2022-11-12T04:59:25;9.17;;;5.00;;
20749;SDS011;10535;50.664;4.564;2022-11-12T05:01:52;10.13;;;5.10;;
20749;SDS011;10535;50.664;4.564;2022-11-12T05:04:27;7.30;;;4.50;;
20749;SDS011;10535;50.664;4.564;2022-11-12T05:06:56;9.43;;;4.50;;
20749;SDS011;10535;50.664;4.564;2022-11-12T05:09:33;10.03;;;5.30;;
20749;SDS011;10535;50.664;4.564;2022-11-12T05:12:03;8.37;;;4.77;;
20749;SDS011;10535;50.664;4.564;2022-11-12T05:14:42;7.43;;;4.00;;
20749;SDS011;10535;50.664;4.564;2022-11-12T05:17:17;8.07;;;4.33;;
20749;SDS011;10535;50.664;4.564;2022-11-12T05:19:46;7.80;;;4.27;;
20749;SDS011;10535;50.664;4.564;2022-11-12T05:22:15;9.23;;;5.10;;
20749;SDS011;10535;50.664;4.564;2022-11-12T05:24:42;8.47;;;4.83;;
20749;SDS011;10535;50.664;4.564;2022-11-12T05:27:10;8.67;;;4.10;;
20749;SDS011;10535;50.664;4.564;2022-11-12T05:29:38;6.93;;;4.47;;
20749;SDS011;10535;50.664;4.564;2022-11-12T05:32:05;7.00;;;4.20;;
20749;SDS011;10535;50.664;4.564;2022-11-12T05:34:32;7.47;;;4.33;;
20749;SDS011;10535;50.664;4.564;2022-11-12T05:36:58;9.60;;;4.67;;
20749;SDS011;10535;50.664;4.564;2022-11-12T05:39:24;8.27;;;4.63;;
20749;SDS011;10535;50.664;4.564;2022-11-12T05:41:51;7.23;;;3.90;;
20749;SDS011;10535;50.664;4.564;2022-11-12T05:44:18;7.23;;;3.97;;
20749;SDS011;10535;50.664;4.564;2022-11-12T05:46:44;5.03;;;3.57;;
20749;SDS011;10535;50.664;4.564;2022-11-12T05:49:10;9.17;;;4.77;;
20749;SDS011;10535;50.664;4.564;2022-11-12T05:51:36;6.60;;;4.03;;
20749;SDS011;10535;50.664;4.564;2022-11-12T05:54:02;7.77;;;4.27;;
20749;SDS011;10535;50.664;4.564;2022-11-12T05:56:28;6.80;;;4.00;;
20749;SDS011;10535;50.664;4.564;2022-11-12T05:58:53;8.00;;;4.13;;
20749;SDS011;10535;50.664;4.564;2022-11-12T06:01:20;6.90;;;4.00;;
20749;SDS011;10535;50.664;4.564;2022-11-12T06:03:51;7.97;;;4.60;;
20749;SDS011;10535;50.664;4.564;2022-11-12T06:06:18;7.03;;;4.67;;
20749;SDS011;10535;50.664;4.564;2022-11-12T06:08:45;7.87;;;4.47;;
20749;SDS011;10535;50.664;4.564;2022-11-12T06:11:27;7.53;;;4.60;;
20749;SDS011;10535;50.664;4.564;2022-11-12T06:13:57;6.63;;;4.03;;
20749;SDS011;10535;50.664;4.564;2022-11-12T06:16:26;8.93;;;4.73;;
20749;SDS011;10535;50.664;4.564;2022-11-12T06:19:15;4.67;;;3.17;;
20749;SDS011;10535;50.664;4.564;2022-11-12T06:22:03;6.83;;;3.40;;
20749;SDS011;10535;50.664;4.564;2022-11-12T06:24:49;7.63;;;4.27;;
20749;SDS011;10535;50.664;4.564;2022-11-12T06:27:26;7.53;;;3.90;;
20749;SDS011;10535;50.664;4.564;2022-11-12T06:30:13;8.23;;;4.47;;
20749;SDS011;10535;50.664;4.564;2022-11-12T06:33:04;9.23;;;5.60;;
20749;SDS011;10535;50.664;4.564;2022-11-12T06:35:44;6.70;;;4.97;;
20749;SDS011;10535;50.664;4.564;2022-11-12T06:38:35;8.73;;;5.10;;
20749;SDS011;10535;50.664;4.564;2022-11-12T06:41:30;8.60;;;5.37;;
20749;SDS011;10535;50.664;4.564;2022-11-12T06:44:02;8.63;;;4.70;;
20749;SDS011;10535;50.664;4.564;2022-11-12T06:46:28;8.63;;;5.53;;
20749;SDS011;10535;50.664;4.564;2022-11-12T06:48:54;6.83;;;5.10;;
20749;SDS011;10535;50.664;4.564;2022-11-12T06:51:31;9.53;;;5.40;;
20749;SDS011;10535;50.664;4.564;2022-11-12T06:54:22;5.60;;;4.10;;
20749;SDS011;10535;50.664;4.564;2022-11-12T06:57:02;7.63;;;5.27;;
20749;SDS011;10535;50.664;4.564;2022-11-12T06:59:29;7.77;;;4.87;;
20749;SDS011;10535;50.664;4.564;2022-11-12T07:01:56;11.20;;;5.50;;
20749;SDS011;10535;50.664;4.564;2022-11-12T07:04:22;10.50;;;5.83;;
20749;SDS011;10535;50.664;4.564;2022-11-12T07:06:54;11.77;;;4.90;;
20749;SDS011;10535;50.664;4.564;2022-11-12T07:09:19;10.93;;;5.50;;
20749;SDS011;10535;50.664;4.564;2022-11-12T07:11:45;8.23;;;5.13;;
20749;SDS011;10535;50.664;4.564;2022-11-12T07:14:11;8.80;;;4.73;;
20749;SDS011;10535;50.664;4.564;2022-11-12T07:16:36;9.90;;;5.70;;
20749;SDS011;10535;50.664;4.564;2022-11-12T07:19:02;10.17;;;5.47;;
20749;SDS011;10535;50.664;4.564;2022-11-12T07:21:28;9.00;;;5.27;;
20749;SDS011;10535;50.664;4.564;2022-11-12T07:23:54;9.40;;;5.33;;
20749;SDS011;10535;50.664;4.564;2022-11-12T07:26:20;8.67;;;5.63;;
20749;SDS011;10535;50.664;4.564;2022-11-12T07:28:48;9.43;;;5.10;;
20749;SDS011;10535;50.664;4.564;2022-11-12T07:31:16;9.63;;;5.97;;
20749;SDS011;10535;50.664;4.564;2022-11-12T07:33:43;9.80;;;5.60;;
20749;SDS011;10535;50.664;4.564;2022-11-12T07:36:14;10.43;;;5.23;;
20749;SDS011;10535;50.664;4.564;2022-11-12T07:38:42;10.53;;;5.60;;
20749;SDS011;10535;50.664;4.564;2022-11-12T07:41:10;8.07;;;5.10;;
20749;SDS011;10535;50.664;4.564;2022-11-12T07:43:54;8.93;;;5.23;;
20749;SDS011;10535;50.664;4.564;2022-11-12T07:46:24;11.93;;;5.80;;
20749;SDS011;10535;50.664;4.564;2022-11-12T07:48:53;9.63;;;6.30;;
20749;SDS011;10535;50.664;4.564;2022-11-12T07:51:23;9.60;;;5.60;;
20749;SDS011;10535;50.664;4.564;2022-11-12T07:53:51;11.80;;;5.70;;
20749;SDS011;10535;50.664;4.564;2022-11-12T07:56:19;11.67;;;6.03;;
20749;SDS011;10535;50.664;4.564;2022-11-12T07:58:49;10.97;;;5.80;;
20749;SDS011;10535;50.664;4.564;2022-11-12T08:01:27;10.10;;;5.80;;
20749;SDS011;10535;50.664;4.564;2022-11-12T08:03:53;11.60;;;6.13;;
20749;SDS011;10535;50.664;4.564;2022-11-12T08:06:22;10.27;;;6.67;;
20749;SDS011;10535;50.664;4.564;2022-11-12T08:08:51;9.90;;;5.73;;
20749;SDS011;10535;50.664;4.564;2022-11-12T08:11:18;12.87;;;6.90;;
20749;SDS011;10535;50.664;4.564;2022-11-12T08:13:46;12.23;;;7.00;;
20749;SDS011;10535;50.664;4.564;2022-11-12T08:16:15;15.63;;;7.07;;
20749;SDS011;10535;50.664;4.564;2022-11-12T08:18:41;12.20;;;6.60;;
20749;SDS011;10535;50.664;4.564;2022-11-12T08:21:16;10.67;;;6.30;;
20749;SDS011;10535;50.664;4.564;2022-11-12T08:23:43;12.37;;;7.17;;
20749;SDS011;10535;50.664;4.564;2022-11-12T08:26:12;11.77;;;6.77;;
20749;SDS011;10535;50.664;4.564;2022-11-12T08:28:40;11.50;;;6.27;;
20749;SDS011;10535;50.664;4.564;2022-11-12T08:31:10;13.10;;;7.63;;
20749;SDS011;10535;50.664;4.564;2022-11-12T08:33:39;24.37;;;11.13;;
20749;SDS011;10535;50.664;4.564;2022-11-12T08:36:07;15.47;;;9.33;;
20749;SDS011;10535;50.664;4.564;2022-11-12T08:38:35;15.97;;;8.27;;
20749;SDS011;10535;50.664;4.564;2022-11-12T08:41:01;14.07;;;8.87;;
20749;SDS011;10535;50.664;4.564;2022-11-12T08:43:33;12.50;;;8.37;;
20749;SDS011;10535;50.664;4.564;2022-11-12T08:46:02;15.10;;;7.70;;
20749;SDS011;10535;50.664;4.564;2022-11-12T08:48:31;15.63;;;9.43;;
20749;SDS011;10535;50.664;4.564;2022-11-12T08:51:00;10.93;;;6.90;;
20749;SDS011;10535;50.664;4.564;2022-11-12T08:53:28;12.27;;;8.10;;
20749;SDS011;10535;50.664;4.564;2022-11-12T08:55:54;13.80;;;7.47;;
20749;SDS011;10535;50.664;4.564;2022-11-12T08:58:23;10.70;;;7.17;;
20749;SDS011;10535;50.664;4.564;2022-11-12T09:00:49;10.20;;;5.73;;
20749;SDS011;10535;50.664;4.564;2022-11-12T09:03:16;10.00;;;6.10;;
20749;SDS011;10535;50.664;4.564;2022-11-12T09:05:43;9.97;;;6.50;;
20749;SDS011;10535;50.664;4.564;2022-11-12T09:08:10;10.53;;;5.83;;
20749;SDS011;10535;50.664;4.564;2022-11-12T09:10:43;7.90;;;4.73;;
20749;SDS011;10535;50.664;4.564;2022-11-12T09:13:09;8.40;;;5.27;;
20749;SDS011;10535;50.664;4.564;2022-11-12T09:15:36;13.07;;;6.57;;
20749;SDS011;10535;50.664;4.564;2022-11-12T09:18:04;9.47;;;5.30;;
20749;SDS011;10535;50.664;4.564;2022-11-12T09:20:32;10.87;;;5.60;;
20749;SDS011;10535;50.664;4.564;2022-11-12T09:23:02;11.00;;;5.73;;
20749;SDS011;10535;50.664;4.564;2022-11-12T09:25:33;12.17;;;5.70;;
20749;SDS011;10535;50.664;4.564;2022-11-12T09:28:08;9.73;;;5.03;;
20749;SDS011;10535;50.664;4.564;2022-11-12T09:30:46;10.53;;;5.63;;
20749;SDS011;10535;50.664;4.564;2022-11-12T09:33:24;7.77;;;4.87;;
20749;SDS011;10535;50.664;4.564;2022-11-12T09:35:59;8.90;;;5.27;;
20749;SDS011;10535;50.664;4.564;2022-11-12T09:38:29;8.87;;;4.70;;
20749;SDS011;10535;50.664;4.564;2022-11-12T09:41:41;5.77;;;4.17;;
20749;SDS011;10535;50.664;4.564;2022-11-12T09:44:01;8.40;;;5.17;;
20749;SDS011;10535;50.664;4.564;2022-11-12T09:46:34;5.53;;;4.40;;
20749;SDS011;10535;50.664;4.564;2022-11-12T09:52:26;7.00;;;3.60;;
20749;SDS011;10535;50.664;4.564;2022-11-12T09:55:04;5.73;;;3.67;;
20749;SDS011;10535;50.664;4.564;2022-11-12T09:57:53;5.57;;;3.70;;
20749;SDS011;10535;50.664;4.564;2022-11-12T10:00:20;6.00;;;3.50;;
20749;SDS011;10535;50.664;4.564;2022-11-12T10:03:08;6.97;;;3.77;;
20749;SDS011;10535;50.664;4.564;2022-11-12T10:06:07;4.67;;;3.47;;
20749;SDS011;10535;50.664;4.564;2022-11-12T10:11:47;5.33;;;2.70;;
20749;SDS011;10535;50.664;4.564;2022-11-12T10:20:51;4.23;;;2.60;;
20749;SDS011;10535;50.664;4.564;2022-11-12T10:23:47;5.27;;;3.10;;
20749;SDS011;10535;50.664;4.564;2022-11-12T10:26:18;3.93;;;2.73;;
20749;SDS011;10535;50.664;4.564;2022-11-12T10:28:54;2.63;;;2.13;;
20749;SDS011;10535;50.664;4.564;2022-11-12T10:31:27;3.33;;;2.30;;
20749;SDS011;10535;50.664;4.564;2022-11-12T10:34:09;4.30;;;2.77;;
20749;SDS011;10535;50.664;4.564;2022-11-12T10:36:59;3.20;;;2.33;;
20749;SDS011;10535;50.664;4.564;2022-11-12T10:39:52;3.30;;;2.10;;
20749;SDS011;10535;50.664;4.564;2022-11-12T10:42:19;5.00;;;2.97;;
20749;SDS011;10535;50.664;4.564;2022-11-12T10:44:48;5.13;;;2.90;;
20749;SDS011;10535;50.664;4.564;2022-11-12T10:52:38;4.37;;;2.23;;
20749;SDS011;10535;50.664;4.564;2022-11-12T10:55:35;3.63;;;2.23;;
20749;SDS011;10535;50.664;4.564;2022-11-12T10:58:28;3.07;;;2.13;;
20749;SDS011;10535;50.664;4.564;2022-11-12T11:03:34;3.77;;;2.27;;
20749;SDS011;10535;50.664;4.564;2022-11-12T11:08:50;3.73;;;2.13;;
20749;SDS011;10535;50.664;4.564;2022-11-12T11:11:35;2.47;;;2.07;;
20749;SDS011;10535;50.664;4.564;2022-11-12T11:17:04;2.70;;;1.70;;
20749;SDS011;10535;50.664;4.564;2022-11-12T11:19:38;3.00;;;1.97;;
20749;SDS011;10535;50.664;4.564;2022-11-12T11:22:17;4.80;;;2.27;;
20749;SDS011;10535;50.664;4.564;2022-11-12T11:30:21;3.83;;;2.00;;
20749;SDS011;10535;50.664;4.564;2022-11-12T11:35:51;3.80;;;2.07;;
20749;SDS011;10535;50.664;4.564;2022-11-12T11:52:20;3.73;;;2.20;;
20749;SDS011;10535;50.664;4.564;2022-11-12T11:57:55;3.80;;;2.47;;
20749;SDS011;10535;50.664;4.564;2022-11-12T12:06:26;4.20;;;2.20;;
20749;SDS011;10535;50.664;4.564;2022-11-12T12:09:13;4.23;;;2.30;;
20749;SDS011;10535;50.664;4.564;2022-11-12T12:12:00;4.87;;;2.10;;
20749;SDS011;10535;50.664;4.564;2022-11-12T12:22:44;3.10;;;1.80;;
20749;SDS011;10535;50.664;4.564;2022-11-12T12:25:36;3.33;;;2.60;;
20749;SDS011;10535;50.664;4.564;2022-11-12T12:28:06;5.30;;;2.33;;
20749;SDS011;10535;50.664;4.564;2022-11-12T12:30:44;5.50;;;2.50;;
20749;SDS011;10535;50.664;4.564;2022-11-12T12:35:57;4.10;;;1.93;;
20749;SDS011;10535;50.664;4.564;2022-11-12T12:44:23;3.10;;;2.27;;
20749;SDS011;10535;50.664;4.564;2022-11-12T12:47:15;3.80;;;1.90;;
20749;SDS011;10535;50.664;4.564;2022-11-12T12:49:43;3.63;;;1.97;;
20749;SDS011;10535;50.664;4.564;2022-11-12T12:52:12;2.80;;;1.80;;
20749;SDS011;10535;50.664;4.564;2022-11-12T12:57:30;3.90;;;2.23;;
20749;SDS011;10535;50.664;4.564;2022-11-12T13:00:23;2.63;;;1.80;;
20749;SDS011;10535;50.664;4.564;2022-11-12T13:03:13;3.50;;;2.00;;
20749;SDS011;10535;50.664;4.564;2022-11-12T13:09:04;4.47;;;1.87;;
20749;SDS011;10535;50.664;4.564;2022-11-12T13:11:45;3.13;;;1.97;;
20749;SDS011;10535;50.664;4.564;2022-11-12T13:19:35;2.27;;;2.00;;
20749;SDS011;10535;50.664;4.564;2022-11-12T13:56:52;2.33;;;1.40;;
20749;SDS011;10535;50.664;4.564;2022-11-12T13:59:19;2.50;;;1.57;;
20749;SDS011;10535;50.664;4.564;2022-11-12T14:01:47;2.87;;;1.70;;
20749;SDS011;10535;50.664;4.564;2022-11-12T14:04:14;2.27;;;1.40;;
20749;SDS011;10535;50.664;4.564;2022-11-12T14:06:43;2.43;;;1.60;;
20749;SDS011;10535;50.664;4.564;2022-11-12T14:15:29;2.77;;;1.73;;
20749;SDS011;10535;50.664;4.564;2022-11-12T14:20:41;5.00;;;1.93;;
20749;SDS011;10535;50.664;4.564;2022-11-12T14:23:20;2.27;;;1.30;;
20749;SDS011;10535;50.664;4.564;2022-11-12T14:26:11;2.10;;;1.80;;
20749;SDS011;10535;50.664;4.564;2022-11-12T14:28:40;7.00;;;2.20;;
20749;SDS011;10535;50.664;4.564;2022-11-12T14:31:22;3.70;;;2.10;;
20749;SDS011;10535;50.664;4.564;2022-11-12T14:33:49;3.73;;;2.23;;
20749;SDS011;10535;50.664;4.564;2022-11-12T14:36:15;2.53;;;2.10;;
20749;SDS011;10535;50.664;4.564;2022-11-12T14:38:50;3.83;;;2.40;;
20749;SDS011;10535;50.664;4.564;2022-11-12T14:41:20;4.30;;;2.13;;
20749;SDS011;10535;50.664;4.564;2022-11-12T14:43:58;4.20;;;2.40;;
20749;SDS011;10535;50.664;4.564;2022-11-12T14:46:37;4.80;;;2.50;;
20749;SDS011;10535;50.664;4.564;2022-11-12T14:52:08;5.20;;;2.73;;
20749;SDS011;10535;50.664;4.564;2022-11-12T14:54:47;3.40;;;2.50;;
20749;SDS011;10535;50.664;4.564;2022-11-12T14:57:28;3.37;;;2.20;;
20749;SDS011;10535;50.664;4.564;2022-11-12T14:59:56;5.27;;;1.97;;
20749;SDS011;10535;50.664;4.564;2022-11-12T15:08:01;2.23;;;2.03;;
20749;SDS011;10535;50.664;4.564;2022-11-12T15:10:30;2.60;;;2.27;;
20749;SDS011;10535;50.664;4.564;2022-11-12T15:13:02;3.73;;;2.20;;
20749;SDS011;10535;50.664;4.564;2022-11-12T15:15:37;2.60;;;1.63;;
20749;SDS011;10535;50.664;4.564;2022-11-12T15:18:17;2.83;;;1.97;;
20749;SDS011;10535;50.664;4.564;2022-11-12T15:23:36;1.83;;;1.50;;
20749;SDS011;10535;50.664;4.564;2022-11-12T15:26:23;3.57;;;2.47;;
20749;SDS011;10535;50.664;4.564;2022-11-12T15:29:12;6.33;;;2.73;;
20749;SDS011;10535;50.664;4.564;2022-11-12T15:34:27;5.80;;;2.97;;
20749;SDS011;10535;50.664;4.564;2022-11-12T15:37:04;4.00;;;2.87;;
20749;SDS011;10535;50.664;4.564;2022-11-12T15:39:33;5.47;;;3.33;;
20749;SDS011;10535;50.664;4.564;2022-11-12T15:42:11;7.50;;;2.83;;
20749;SDS011;10535;50.664;4.564;2022-11-12T15:45:01;3.67;;;2.10;;
20749;SDS011;10535;50.664;4.564;2022-11-12T15:47:29;5.57;;;2.97;;
20749;SDS011;10535;50.664;4.564;2022-11-12T15:49:55;7.13;;;4.40;;
20749;SDS011;10535;50.664;4.564;2022-11-12T15:52:25;5.37;;;3.20;;
20749;SDS011;10535;50.664;4.564;2022-11-12T15:54:51;6.93;;;3.70;;
20749;SDS011;10535;50.664;4.564;2022-11-12T15:57:24;6.07;;;3.70;;
20749;SDS011;10535;50.664;4.564;2022-11-12T16:00:00;11.60;;;3.60;;
20749;SDS011;10535;50.664;4.564;2022-11-12T16:02:38;4.27;;;2.60;;
20749;SDS011;10535;50.664;4.564;2022-11-12T16:05:04;4.50;;;2.50;;
20749;SDS011;10535;50.664;4.564;2022-11-12T16:07:33;6.97;;;3.10;;
20749;SDS011;10535;50.664;4.564;2022-11-12T16:09:59;4.90;;;3.13;;
20749;SDS011;10535;50.664;4.564;2022-11-12T16:12:24;4.33;;;3.03;;
20749;SDS011;10535;50.664;4.564;2022-11-12T16:14:51;4.10;;;3.13;;
20749;SDS011;10535;50.664;4.564;2022-11-12T16:17:16;6.10;;;3.30;;
20749;SDS011;10535;50.664;4.564;2022-11-12T16:19:42;5.37;;;3.63;;
20749;SDS011;10535;50.664;4.564;2022-11-12T16:22:08;4.20;;;2.73;;
20749;SDS011;10535;50.664;4.564;2022-11-12T16:24:40;4.60;;;3.20;;
20749;SDS011;10535;50.664;4.564;2022-11-12T16:27:08;4.50;;;2.40;;
20749;SDS011;10535;50.664;4.564;2022-11-12T16:29:37;5.37;;;3.20;;
20749;SDS011;10535;50.664;4.564;2022-11-12T16:32:03;5.27;;;3.27;;
20749;SDS011;10535;50.664;4.564;2022-11-12T16:34:29;6.93;;;3.13;;
20749;SDS011;10535;50.664;4.564;2022-11-12T16:37:21;7.27;;;3.67;;
20749;SDS011;10535;50.664;4.564;2022-11-12T16:39:51;13.37;;;6.53;;
20749;SDS011;10535;50.664;4.564;2022-11-12T16:42:59;9.70;;;5.10;;
20749;SDS011;10535;50.664;4.564;2022-11-12T16:45:37;6.10;;;4.23;;
20749;SDS011;10535;50.664;4.564;2022-11-12T16:48:20;7.70;;;4.83;;
20749;SDS011;10535;50.664;4.564;2022-11-12T16:51:19;8.23;;;4.67;;
20749;SDS011;10535;50.664;4.564;2022-11-12T16:54:04;10.00;;;4.70;;
20749;SDS011;10535;50.664;4.564;2022-11-12T16:56:42;8.00;;;4.17;;
20749;SDS011;10535;50.664;4.564;2022-11-12T16:59:10;8.70;;;5.10;;
20749;SDS011;10535;50.664;4.564;2022-11-12T17:01:38;8.77;;;4.30;;
20749;SDS011;10535;50.664;4.564;2022-11-12T17:04:04;12.50;;;6.63;;
20749;SDS011;10535;50.664;4.564;2022-11-12T17:06:34;27.40;;;12.37;;
20749;SDS011;10535;50.664;4.564;2022-11-12T17:09:04;20.63;;;11.23;;
20749;SDS011;10535;50.664;4.564;2022-11-12T17:11:33;20.77;;;11.47;;
20749;SDS011;10535;50.664;4.564;2022-11-12T17:13:59;13.07;;;7.77;;
20749;SDS011;10535;50.664;4.564;2022-11-12T17:16:26;8.83;;;6.23;;
20749;SDS011;10535;50.664;4.564;2022-11-12T17:18:52;10.87;;;5.83;;
20749;SDS011;10535;50.664;4.564;2022-11-12T17:21:19;11.17;;;5.80;;
20749;SDS011;10535;50.664;4.564;2022-11-12T17:23:50;8.20;;;5.70;;
20749;SDS011;10535;50.664;4.564;2022-11-12T17:26:38;29.77;;;17.07;;
20749;SDS011;10535;50.664;4.564;2022-11-12T17:29:04;32.60;;;15.13;;
20749;SDS011;10535;50.664;4.564;2022-11-12T17:31:30;17.93;;;10.27;;
20749;SDS011;10535;50.664;4.564;2022-11-12T17:33:57;15.17;;;8.57;;
20749;SDS011;10535;50.664;4.564;2022-11-12T17:36:28;12.90;;;7.20;;
20749;SDS011;10535;50.664;4.564;2022-11-12T17:38:55;14.53;;;6.87;;
20749;SDS011;10535;50.664;4.564;2022-11-12T17:41:22;12.20;;;7.30;;
20749;SDS011;10535;50.664;4.564;2022-11-12T17:43:56;14.57;;;7.77;;
20749;SDS011;10535;50.664;4.564;2022-11-12T17:46:29;16.60;;;7.90;;
20749;SDS011;10535;50.664;4.564;2022-11-12T17:48:56;12.37;;;8.37;;
20749;SDS011;10535;50.664;4.564;2022-11-12T17:51:22;17.80;;;8.37;;
20749;SDS011;10535;50.664;4.564;2022-11-12T17:53:49;14.37;;;8.07;;